sensor_id;sensor_type;location;lat;lon;timestamp;P1;durP1;ratioP1;P2;durP2;ratioP2
23300;SDS011;11819;51.394;12.340;2023-07-31T00:01:51;7.82;;;3.08;;
23300;SDS011;11819;51.394;12.340;2023-07-31T00:04:17;8.35;;;3.25;;
23300;SDS011;11819;51.394;12.340;2023-07-31T00:06:44;6.30;;;2.85;;
23300;SDS011;11819;51.394;12.340;2023-07-31T00:09:09;9.65;;;2.92;;
23300;SDS011;11819;51.394;12.340;2023-07-31T00:11:35;6.57;;;2.85;;
23300;SDS011;11819;51.394;12.340;2023-07-31T00:14:00;5.25;;;2.80;;
23300;SDS011;11819;51.394;12.340;2023-07-31T00:16:26;6.65;;;2.90;;
23300;SDS011;11819;51.394;12.340;2023-07-31T00:18:52;7.45;;;2.72;;
23300;SDS011;11819;51.394;12.340;2023-07-31T00:21:18;6.10;;;3.30;;
23300;SDS011;11819;51.394;12.340;2023-07-31T00:23:43;5.20;;;2.83;;
23300;SDS011;11819;51.394;12.340;2023-07-31T00:26:09;6.97;;;3.05;;
23300;SDS011;11819;51.394;12.340;2023-07-31T00:28:34;5.97;;;3.35;;
23300;SDS011;11819;51.394;12.340;2023-07-31T00:31:00;6.95;;;3.33;;
23300;SDS011;11819;51.394;12.340;2023-07-31T00:33:27;7.22;;;3.30;;
23300;SDS011;11819;51.394;12.340;2023-07-31T00:35:52;8.55;;;2.90;;
23300;SDS011;11819;51.394;12.340;2023-07-31T00:38:18;8.27;;;3.10;;
23300;SDS011;11819;51.394;12.340;2023-07-31T00:40:43;4.03;;;2.67;;
23300;SDS011;11819;51.394;12.340;2023-07-31T00:43:09;5.97;;;2.88;;
23300;SDS011;11819;51.394;12.340;2023-07-31T00:45:35;8.18;;;3.20;;
23300;SDS011;11819;51.394;12.340;2023-07-31T00:48:01;5.60;;;2.88;;
23300;SDS011;11819;51.394;12.340;2023-07-31T00:50:27;5.72;;;3.03;;
23300;SDS011;11819;51.394;12.340;2023-07-31T00:52:53;6.32;;;3.15;;
23300;SDS011;11819;51.394;12.340;2023-07-31T00:55:19;8.02;;;3.05;;
23300;SDS011;11819;51.394;12.340;2023-07-31T00:57:46;8.15;;;3.20;;
23300;SDS011;11819;51.394;12.340;2023-07-31T01:00:13;7.45;;;2.88;;
23300;SDS011;11819;51.394;12.340;2023-07-31T01:02:39;6.10;;;2.67;;
23300;SDS011;11819;51.394;12.340;2023-07-31T01:05:05;6.63;;;3.03;;
23300;SDS011;11819;51.394;12.340;2023-07-31T01:07:56;5.80;;;2.63;;
23300;SDS011;11819;51.394;12.340;2023-07-31T01:10:30;6.25;;;2.80;;
23300;SDS011;11819;51.394;12.340;2023-07-31T01:13:02;6.07;;;3.00;;
23300;SDS011;11819;51.394;12.340;2023-07-31T01:15:28;6.30;;;2.53;;
23300;SDS011;11819;51.394;12.340;2023-07-31T01:17:54;6.47;;;3.25;;
23300;SDS011;11819;51.394;12.340;2023-07-31T01:20:23;5.82;;;2.92;;
23300;SDS011;11819;51.394;12.340;2023-07-31T01:28:39;7.55;;;3.33;;
23300;SDS011;11819;51.394;12.340;2023-07-31T01:31:20;6.93;;;3.05;;
23300;SDS011;11819;51.394;12.340;2023-07-31T01:33:48;6.05;;;2.95;;
23300;SDS011;11819;51.394;12.340;2023-07-31T01:36:15;6.68;;;3.08;;
23300;SDS011;11819;51.394;12.340;2023-07-31T01:38:42;6.38;;;3.10;;
23300;SDS011;11819;51.394;12.340;2023-07-31T01:41:07;6.45;;;2.85;;
23300;SDS011;11819;51.394;12.340;2023-07-31T01:43:33;5.88;;;2.85;;
23300;SDS011;11819;51.394;12.340;2023-07-31T01:45:59;7.72;;;3.20;;
23300;SDS011;11819;51.394;12.340;2023-07-31T01:48:24;5.70;;;3.00;;
23300;SDS011;11819;51.394;12.340;2023-07-31T01:50:50;6.93;;;2.88;;
23300;SDS011;11819;51.394;12.340;2023-07-31T01:53:16;5.80;;;2.75;;
23300;SDS011;11819;51.394;12.340;2023-07-31T01:55:41;4.30;;;2.60;;
23300;SDS011;11819;51.394;12.340;2023-07-31T01:58:07;4.05;;;2.60;;
23300;SDS011;11819;51.394;12.340;2023-07-31T02:00:33;6.20;;;2.55;;
23300;SDS011;11819;51.394;12.340;2023-07-31T02:02:59;9.73;;;3.00;;
23300;SDS011;11819;51.394;12.340;2023-07-31T02:05:25;5.60;;;3.10;;
23300;SDS011;11819;51.394;12.340;2023-07-31T02:07:52;6.78;;;3.05;;
23300;SDS011;11819;51.394;12.340;2023-07-31T02:10:18;7.10;;;3.22;;
23300;SDS011;11819;51.394;12.340;2023-07-31T02:12:44;5.63;;;2.67;;
23300;SDS011;11819;51.394;12.340;2023-07-31T02:15:09;7.65;;;2.92;;
23300;SDS011;11819;51.394;12.340;2023-07-31T02:17:35;6.55;;;3.00;;
23300;SDS011;11819;51.394;12.340;2023-07-31T02:20:00;5.93;;;3.20;;
23300;SDS011;11819;51.394;12.340;2023-07-31T02:22:26;5.75;;;3.00;;
23300;SDS011;11819;51.394;12.340;2023-07-31T02:24:55;7.03;;;3.00;;
23300;SDS011;11819;51.394;12.340;2023-07-31T02:27:21;5.75;;;2.75;;
23300;SDS011;11819;51.394;12.340;2023-07-31T02:29:49;3.72;;;2.47;;
23300;SDS011;11819;51.394;12.340;2023-07-31T02:32:14;7.13;;;3.05;;
23300;SDS011;11819;51.394;12.340;2023-07-31T02:34:40;4.60;;;2.75;;
23300;SDS011;11819;51.394;12.340;2023-07-31T02:37:06;6.40;;;3.05;;
23300;SDS011;11819;51.394;12.340;2023-07-31T02:39:32;7.55;;;3.35;;
23300;SDS011;11819;51.394;12.340;2023-07-31T02:41:57;7.55;;;2.80;;
23300;SDS011;11819;51.394;12.340;2023-07-31T02:44:23;6.40;;;3.00;;
23300;SDS011;11819;51.394;12.340;2023-07-31T02:46:49;9.63;;;3.72;;
23300;SDS011;11819;51.394;12.340;2023-07-31T02:49:15;4.93;;;2.90;;
23300;SDS011;11819;51.394;12.340;2023-07-31T02:51:40;8.48;;;3.35;;
23300;SDS011;11819;51.394;12.340;2023-07-31T02:54:06;5.93;;;3.05;;
23300;SDS011;11819;51.394;12.340;2023-07-31T02:56:31;6.55;;;3.63;;
23300;SDS011;11819;51.394;12.340;2023-07-31T02:58:57;5.45;;;3.00;;
23300;SDS011;11819;51.394;12.340;2023-07-31T03:01:23;5.40;;;2.75;;
23300;SDS011;11819;51.394;12.340;2023-07-31T03:03:49;6.75;;;3.42;;
23300;SDS011;11819;51.394;12.340;2023-07-31T03:06:15;5.47;;;2.75;;
23300;SDS011;11819;51.394;12.340;2023-07-31T03:08:41;6.35;;;2.83;;
23300;SDS011;11819;51.394;12.340;2023-07-31T03:11:06;9.20;;;3.58;;
23300;SDS011;11819;51.394;12.340;2023-07-31T03:13:32;6.47;;;3.13;;
23300;SDS011;11819;51.394;12.340;2023-07-31T03:15:58;7.22;;;3.38;;
23300;SDS011;11819;51.394;12.340;2023-07-31T03:18:23;6.10;;;3.17;;
23300;SDS011;11819;51.394;12.340;2023-07-31T03:20:49;5.60;;;3.20;;
23300;SDS011;11819;51.394;12.340;2023-07-31T03:23:15;7.30;;;3.40;;
23300;SDS011;11819;51.394;12.340;2023-07-31T03:25:42;8.25;;;3.50;;
23300;SDS011;11819;51.394;12.340;2023-07-31T03:28:28;6.55;;;3.00;;
23300;SDS011;11819;51.394;12.340;2023-07-31T03:30:54;6.30;;;3.40;;
23300;SDS011;11819;51.394;12.340;2023-07-31T03:33:21;6.20;;;3.53;;
23300;SDS011;11819;51.394;12.340;2023-07-31T03:35:46;5.28;;;3.35;;
23300;SDS011;11819;51.394;12.340;2023-07-31T03:38:12;7.22;;;3.50;;
23300;SDS011;11819;51.394;12.340;2023-07-31T03:40:38;8.13;;;3.42;;
23300;SDS011;11819;51.394;12.340;2023-07-31T03:43:04;7.13;;;3.22;;
23300;SDS011;11819;51.394;12.340;2023-07-31T03:45:30;6.93;;;3.53;;
23300;SDS011;11819;51.394;12.340;2023-07-31T03:47:59;7.97;;;3.70;;
23300;SDS011;11819;51.394;12.340;2023-07-31T03:50:25;9.40;;;3.85;;
23300;SDS011;11819;51.394;12.340;2023-07-31T03:52:51;8.45;;;3.40;;
23300;SDS011;11819;51.394;12.340;2023-07-31T03:55:17;8.40;;;4.03;;
23300;SDS011;11819;51.394;12.340;2023-07-31T03:57:43;8.35;;;3.25;;
23300;SDS011;11819;51.394;12.340;2023-07-31T04:00:09;6.05;;;3.22;;
23300;SDS011;11819;51.394;12.340;2023-07-31T04:02:38;5.65;;;3.53;;
23300;SDS011;11819;51.394;12.340;2023-07-31T04:05:03;8.85;;;3.78;;
23300;SDS011;11819;51.394;12.340;2023-07-31T04:07:29;9.63;;;3.85;;
23300;SDS011;11819;51.394;12.340;2023-07-31T04:09:55;10.40;;;3.47;;
23300;SDS011;11819;51.394;12.340;2023-07-31T04:12:22;7.03;;;3.35;;
23300;SDS011;11819;51.394;12.340;2023-07-31T04:14:48;5.32;;;3.42;;
23300;SDS011;11819;51.394;12.340;2023-07-31T04:17:13;6.63;;;3.47;;
23300;SDS011;11819;51.394;12.340;2023-07-31T04:19:39;7.65;;;3.72;;
23300;SDS011;11819;51.394;12.340;2023-07-31T04:22:04;6.65;;;3.72;;
23300;SDS011;11819;51.394;12.340;2023-07-31T04:24:30;7.70;;;3.70;;
23300;SDS011;11819;51.394;12.340;2023-07-31T04:26:56;6.38;;;3.53;;
23300;SDS011;11819;51.394;12.340;2023-07-31T04:29:21;6.03;;;3.40;;
23300;SDS011;11819;51.394;12.340;2023-07-31T04:31:47;7.63;;;4.00;;
23300;SDS011;11819;51.394;12.340;2023-07-31T04:34:13;6.40;;;3.42;;
23300;SDS011;11819;51.394;12.340;2023-07-31T04:36:39;6.13;;;3.20;;
23300;SDS011;11819;51.394;12.340;2023-07-31T04:39:05;8.75;;;3.70;;
23300;SDS011;11819;51.394;12.340;2023-07-31T04:41:30;8.82;;;3.60;;
23300;SDS011;11819;51.394;12.340;2023-07-31T04:43:56;7.38;;;3.80;;
23300;SDS011;11819;51.394;12.340;2023-07-31T04:46:22;7.65;;;3.70;;
23300;SDS011;11819;51.394;12.340;2023-07-31T04:48:47;6.38;;;3.30;;
23300;SDS011;11819;51.394;12.340;2023-07-31T04:51:13;5.20;;;3.35;;
23300;SDS011;11819;51.394;12.340;2023-07-31T04:53:38;6.80;;;3.78;;
23300;SDS011;11819;51.394;12.340;2023-07-31T04:56:04;8.52;;;3.58;;
23300;SDS011;11819;51.394;12.340;2023-07-31T04:58:30;6.68;;;4.07;;
23300;SDS011;11819;51.394;12.340;2023-07-31T05:00:56;7.50;;;4.13;;
23300;SDS011;11819;51.394;12.340;2023-07-31T05:03:21;7.05;;;4.15;;
23300;SDS011;11819;51.394;12.340;2023-07-31T05:05:49;8.82;;;4.05;;
23300;SDS011;11819;51.394;12.340;2023-07-31T05:08:15;8.90;;;3.70;;
23300;SDS011;11819;51.394;12.340;2023-07-31T05:10:42;9.27;;;4.00;;
23300;SDS011;11819;51.394;12.340;2023-07-31T05:13:08;9.00;;;4.53;;
23300;SDS011;11819;51.394;12.340;2023-07-31T05:15:34;7.68;;;4.22;;
23300;SDS011;11819;51.394;12.340;2023-07-31T05:18:00;8.95;;;4.82;;
23300;SDS011;11819;51.394;12.340;2023-07-31T05:20:25;6.57;;;3.90;;
23300;SDS011;11819;51.394;12.340;2023-07-31T05:22:52;6.22;;;4.00;;
23300;SDS011;11819;51.394;12.340;2023-07-31T05:25:18;6.82;;;4.15;;
23300;SDS011;11819;51.394;12.340;2023-07-31T05:27:44;7.00;;;3.55;;
23300;SDS011;11819;51.394;12.340;2023-07-31T05:30:09;7.40;;;3.92;;
23300;SDS011;11819;51.394;12.340;2023-07-31T05:32:35;9.68;;;4.38;;
23300;SDS011;11819;51.394;12.340;2023-07-31T05:35:01;7.28;;;4.03;;
23300;SDS011;11819;51.394;12.340;2023-07-31T05:37:26;10.43;;;4.65;;
23300;SDS011;11819;51.394;12.340;2023-07-31T05:39:53;8.73;;;4.55;;
23300;SDS011;11819;51.394;12.340;2023-07-31T05:42:19;10.30;;;4.43;;
23300;SDS011;11819;51.394;12.340;2023-07-31T05:44:45;6.53;;;4.03;;
23300;SDS011;11819;51.394;12.340;2023-07-31T05:47:10;8.68;;;4.85;;
23300;SDS011;11819;51.394;12.340;2023-07-31T05:49:36;12.32;;;4.85;;
23300;SDS011;11819;51.394;12.340;2023-07-31T05:52:02;8.23;;;5.00;;
23300;SDS011;11819;51.394;12.340;2023-07-31T05:54:28;8.07;;;4.22;;
23300;SDS011;11819;51.394;12.340;2023-07-31T05:56:53;7.22;;;4.38;;
23300;SDS011;11819;51.394;12.340;2023-07-31T05:59:19;8.73;;;4.45;;
23300;SDS011;11819;51.394;12.340;2023-07-31T06:01:44;7.00;;;4.28;;
23300;SDS011;11819;51.394;12.340;2023-07-31T06:04:10;6.88;;;4.30;;
23300;SDS011;11819;51.394;12.340;2023-07-31T06:06:36;9.18;;;4.65;;
23300;SDS011;11819;51.394;12.340;2023-07-31T06:09:01;7.88;;;4.25;;
23300;SDS011;11819;51.394;12.340;2023-07-31T06:11:28;9.10;;;4.93;;
23300;SDS011;11819;51.394;12.340;2023-07-31T06:13:54;9.73;;;4.40;;
23300;SDS011;11819;51.394;12.340;2023-07-31T06:16:20;7.05;;;4.15;;
23300;SDS011;11819;51.394;12.340;2023-07-31T06:18:46;9.98;;;4.03;;
23300;SDS011;11819;51.394;12.340;2023-07-31T06:21:12;7.22;;;3.88;;
23300;SDS011;11819;51.394;12.340;2023-07-31T06:23:38;9.45;;;4.30;;
23300;SDS011;11819;51.394;12.340;2023-07-31T06:26:04;9.82;;;4.60;;
23300;SDS011;11819;51.394;12.340;2023-07-31T06:28:30;5.70;;;3.67;;
23300;SDS011;11819;51.394;12.340;2023-07-31T06:30:57;7.82;;;4.20;;
23300;SDS011;11819;51.394;12.340;2023-07-31T06:33:23;9.50;;;4.30;;
23300;SDS011;11819;51.394;12.340;2023-07-31T06:35:49;6.47;;;3.90;;
23300;SDS011;11819;51.394;12.340;2023-07-31T06:38:14;6.82;;;3.70;;
23300;SDS011;11819;51.394;12.340;2023-07-31T06:40:40;7.88;;;4.38;;
23300;SDS011;11819;51.394;12.340;2023-07-31T06:43:06;8.18;;;4.10;;
23300;SDS011;11819;51.394;12.340;2023-07-31T06:45:35;7.63;;;3.90;;
23300;SDS011;11819;51.394;12.340;2023-07-31T06:48:03;9.05;;;4.38;;
23300;SDS011;11819;51.394;12.340;2023-07-31T06:50:29;7.03;;;4.38;;
23300;SDS011;11819;51.394;12.340;2023-07-31T06:52:55;7.07;;;3.80;;
23300;SDS011;11819;51.394;12.340;2023-07-31T06:55:21;9.55;;;4.05;;
23300;SDS011;11819;51.394;12.340;2023-07-31T06:57:48;10.90;;;4.40;;
23300;SDS011;11819;51.394;12.340;2023-07-31T07:00:15;6.80;;;3.75;;
23300;SDS011;11819;51.394;12.340;2023-07-31T07:02:41;6.60;;;3.58;;
23300;SDS011;11819;51.394;12.340;2023-07-31T07:05:07;7.18;;;3.53;;
23300;SDS011;11819;51.394;12.340;2023-07-31T07:07:33;6.57;;;4.00;;
23300;SDS011;11819;51.394;12.340;2023-07-31T07:09:59;7.60;;;4.43;;
23300;SDS011;11819;51.394;12.340;2023-07-31T07:12:25;8.18;;;4.03;;
23300;SDS011;11819;51.394;12.340;2023-07-31T07:14:52;7.63;;;4.13;;
23300;SDS011;11819;51.394;12.340;2023-07-31T07:17:18;5.82;;;3.55;;
23300;SDS011;11819;51.394;12.340;2023-07-31T07:19:44;9.73;;;3.80;;
23300;SDS011;11819;51.394;12.340;2023-07-31T07:22:11;13.60;;;3.67;;
23300;SDS011;11819;51.394;12.340;2023-07-31T07:24:37;8.77;;;4.30;;
23300;SDS011;11819;51.394;12.340;2023-07-31T07:27:02;8.88;;;4.03;;
23300;SDS011;11819;51.394;12.340;2023-07-31T07:29:28;8.05;;;3.85;;
23300;SDS011;11819;51.394;12.340;2023-07-31T07:31:55;7.05;;;3.78;;
23300;SDS011;11819;51.394;12.340;2023-07-31T07:34:29;9.75;;;4.10;;
23300;SDS011;11819;51.394;12.340;2023-07-31T07:36:55;8.90;;;4.97;;
23300;SDS011;11819;51.394;12.340;2023-07-31T07:39:21;8.13;;;4.18;;
23300;SDS011;11819;51.394;12.340;2023-07-31T07:41:46;7.65;;;3.85;;
23300;SDS011;11819;51.394;12.340;2023-07-31T07:44:13;7.53;;;4.05;;
23300;SDS011;11819;51.394;12.340;2023-07-31T07:46:39;6.68;;;3.53;;
23300;SDS011;11819;51.394;12.340;2023-07-31T07:49:05;7.25;;;3.72;;
23300;SDS011;11819;51.394;12.340;2023-07-31T07:51:31;7.85;;;3.53;;
23300;SDS011;11819;51.394;12.340;2023-07-31T07:53:57;8.68;;;3.85;;
23300;SDS011;11819;51.394;12.340;2023-07-31T07:56:23;5.85;;;3.47;;
23300;SDS011;11819;51.394;12.340;2023-07-31T07:58:50;7.85;;;3.38;;
23300;SDS011;11819;51.394;12.340;2023-07-31T08:01:16;9.00;;;3.67;;
23300;SDS011;11819;51.394;12.340;2023-07-31T08:03:42;7.63;;;3.88;;
23300;SDS011;11819;51.394;12.340;2023-07-31T08:06:07;6.90;;;3.50;;
23300;SDS011;11819;51.394;12.340;2023-07-31T08:08:34;9.68;;;4.10;;
23300;SDS011;11819;51.394;12.340;2023-07-31T08:11:00;8.02;;;3.95;;
23300;SDS011;11819;51.394;12.340;2023-07-31T08:13:26;8.30;;;4.50;;
23300;SDS011;11819;51.394;12.340;2023-07-31T08:15:52;6.43;;;3.40;;
23300;SDS011;11819;51.394;12.340;2023-07-31T08:18:18;7.03;;;3.90;;
23300;SDS011;11819;51.394;12.340;2023-07-31T08:20:44;7.03;;;4.25;;
23300;SDS011;11819;51.394;12.340;2023-07-31T08:23:10;7.80;;;3.50;;
23300;SDS011;11819;51.394;12.340;2023-07-31T08:25:36;8.43;;;4.30;;
23300;SDS011;11819;51.394;12.340;2023-07-31T08:28:02;7.50;;;3.65;;
23300;SDS011;11819;51.394;12.340;2023-07-31T08:30:28;7.88;;;3.42;;
23300;SDS011;11819;51.394;12.340;2023-07-31T08:32:54;7.57;;;3.95;;
23300;SDS011;11819;51.394;12.340;2023-07-31T08:35:19;7.00;;;3.83;;
23300;SDS011;11819;51.394;12.340;2023-07-31T08:37:45;7.53;;;3.72;;
23300;SDS011;11819;51.394;12.340;2023-07-31T08:40:11;7.18;;;3.33;;
23300;SDS011;11819;51.394;12.340;2023-07-31T08:42:43;7.10;;;3.38;;
23300;SDS011;11819;51.394;12.340;2023-07-31T08:45:17;7.57;;;3.80;;
23300;SDS011;11819;51.394;12.340;2023-07-31T08:47:48;6.10;;;2.60;;
23300;SDS011;11819;51.394;12.340;2023-07-31T08:50:18;8.48;;;3.92;;
23300;SDS011;11819;51.394;12.340;2023-07-31T08:52:45;6.30;;;3.70;;
23300;SDS011;11819;51.394;12.340;2023-07-31T08:55:12;8.40;;;3.95;;
23300;SDS011;11819;51.394;12.340;2023-07-31T08:57:38;8.30;;;4.45;;
23300;SDS011;11819;51.394;12.340;2023-07-31T09:00:05;6.75;;;3.20;;
23300;SDS011;11819;51.394;12.340;2023-07-31T09:02:41;7.32;;;3.85;;
23300;SDS011;11819;51.394;12.340;2023-07-31T09:05:13;5.55;;;3.47;;
23300;SDS011;11819;51.394;12.340;2023-07-31T09:07:40;9.07;;;3.42;;
23300;SDS011;11819;51.394;12.340;2023-07-31T09:10:09;8.32;;;3.83;;
23300;SDS011;11819;51.394;12.340;2023-07-31T09:12:35;6.88;;;4.13;;
23300;SDS011;11819;51.394;12.340;2023-07-31T09:15:01;5.88;;;3.70;;
23300;SDS011;11819;51.394;12.340;2023-07-31T09:17:36;7.38;;;3.85;;
23300;SDS011;11819;51.394;12.340;2023-07-31T09:20:21;7.53;;;3.38;;
23300;SDS011;11819;51.394;12.340;2023-07-31T09:22:48;7.07;;;3.85;;
23300;SDS011;11819;51.394;12.340;2023-07-31T09:25:26;6.55;;;3.63;;
23300;SDS011;11819;51.394;12.340;2023-07-31T09:27:57;6.45;;;3.40;;
23300;SDS011;11819;51.394;12.340;2023-07-31T09:30:24;5.88;;;3.30;;
23300;SDS011;11819;51.394;12.340;2023-07-31T09:32:51;7.53;;;3.88;;
23300;SDS011;11819;51.394;12.340;2023-07-31T09:35:28;6.38;;;3.75;;
23300;SDS011;11819;51.394;12.340;2023-07-31T09:37:59;8.23;;;3.80;;
23300;SDS011;11819;51.394;12.340;2023-07-31T09:40:35;6.40;;;3.53;;
23300;SDS011;11819;51.394;12.340;2023-07-31T09:43:12;9.40;;;3.88;;
23300;SDS011;11819;51.394;12.340;2023-07-31T09:45:44;7.45;;;3.83;;
23300;SDS011;11819;51.394;12.340;2023-07-31T09:48:17;10.25;;;4.10;;
23300;SDS011;11819;51.394;12.340;2023-07-31T09:50:44;8.43;;;3.83;;
23300;SDS011;11819;51.394;12.340;2023-07-31T09:53:11;7.63;;;3.90;;
23300;SDS011;11819;51.394;12.340;2023-07-31T09:55:37;8.13;;;3.80;;
23300;SDS011;11819;51.394;12.340;2023-07-31T09:58:04;9.23;;;4.30;;
23300;SDS011;11819;51.394;12.340;2023-07-31T10:00:32;6.78;;;3.60;;
23300;SDS011;11819;51.394;12.340;2023-07-31T10:02:59;7.10;;;3.42;;
23300;SDS011;11819;51.394;12.340;2023-07-31T10:05:49;7.38;;;3.53;;
23300;SDS011;11819;51.394;12.340;2023-07-31T10:08:18;7.15;;;3.63;;
23300;SDS011;11819;51.394;12.340;2023-07-31T10:10:47;8.90;;;4.28;;
23300;SDS011;11819;51.394;12.340;2023-07-31T10:13:13;7.32;;;3.53;;
23300;SDS011;11819;51.394;12.340;2023-07-31T10:15:39;6.57;;;3.60;;
23300;SDS011;11819;51.394;12.340;2023-07-31T10:18:09;6.90;;;3.78;;
23300;SDS011;11819;51.394;12.340;2023-07-31T10:20:35;6.40;;;3.70;;
23300;SDS011;11819;51.394;12.340;2023-07-31T10:23:02;7.15;;;3.70;;
23300;SDS011;11819;51.394;12.340;2023-07-31T10:25:28;7.32;;;3.83;;
23300;SDS011;11819;51.394;12.340;2023-07-31T10:27:55;7.22;;;3.50;;
23300;SDS011;11819;51.394;12.340;2023-07-31T10:30:25;8.13;;;4.10;;
23300;SDS011;11819;51.394;12.340;2023-07-31T10:32:54;6.85;;;3.78;;
23300;SDS011;11819;51.394;12.340;2023-07-31T10:35:21;6.55;;;3.90;;
23300;SDS011;11819;51.394;12.340;2023-07-31T10:37:51;8.88;;;3.85;;
23300;SDS011;11819;51.394;12.340;2023-07-31T10:40:18;6.72;;;3.75;;
23300;SDS011;11819;51.394;12.340;2023-07-31T10:42:47;7.78;;;3.63;;
23300;SDS011;11819;51.394;12.340;2023-07-31T10:45:33;7.60;;;3.97;;
23300;SDS011;11819;51.394;12.340;2023-07-31T10:48:14;6.50;;;3.60;;
23300;SDS011;11819;51.394;12.340;2023-07-31T10:50:51;6.57;;;3.65;;
23300;SDS011;11819;51.394;12.340;2023-07-31T10:53:23;10.55;;;5.05;;
23300;SDS011;11819;51.394;12.340;2023-07-31T10:55:50;6.55;;;3.85;;
23300;SDS011;11819;51.394;12.340;2023-07-31T10:58:19;6.55;;;3.60;;
23300;SDS011;11819;51.394;12.340;2023-07-31T11:00:46;4.95;;;3.30;;
23300;SDS011;11819;51.394;12.340;2023-07-31T11:05:46;7.75;;;3.85;;
23300;SDS011;11819;51.394;12.340;2023-07-31T11:08:25;6.75;;;3.80;;
23300;SDS011;11819;51.394;12.340;2023-07-31T11:13:34;7.30;;;4.38;;
23300;SDS011;11819;51.394;12.340;2023-07-31T11:16:06;6.55;;;3.70;;
23300;SDS011;11819;51.394;12.340;2023-07-31T11:18:32;7.43;;;3.50;;
23300;SDS011;11819;51.394;12.340;2023-07-31T11:20:58;5.97;;;3.40;;
23300;SDS011;11819;51.394;12.340;2023-07-31T11:23:23;6.60;;;3.55;;
23300;SDS011;11819;51.394;12.340;2023-07-31T11:25:50;6.38;;;3.75;;
23300;SDS011;11819;51.394;12.340;2023-07-31T11:28:16;6.35;;;3.75;;
23300;SDS011;11819;51.394;12.340;2023-07-31T11:30:43;5.65;;;3.92;;
23300;SDS011;11819;51.394;12.340;2023-07-31T11:33:11;7.18;;;3.97;;
23300;SDS011;11819;51.394;12.340;2023-07-31T11:35:45;8.57;;;4.00;;
23300;SDS011;11819;51.394;12.340;2023-07-31T11:38:12;7.50;;;3.75;;
23300;SDS011;11819;51.394;12.340;2023-07-31T11:40:51;7.90;;;3.80;;
23300;SDS011;11819;51.394;12.340;2023-07-31T11:43:18;8.40;;;4.40;;
23300;SDS011;11819;51.394;12.340;2023-07-31T11:45:49;7.40;;;4.13;;
23300;SDS011;11819;51.394;12.340;2023-07-31T11:48:23;5.65;;;3.65;;
23300;SDS011;11819;51.394;12.340;2023-07-31T11:50:49;6.70;;;3.70;;
23300;SDS011;11819;51.394;12.340;2023-07-31T11:53:17;7.63;;;4.68;;
23300;SDS011;11819;51.394;12.340;2023-07-31T11:55:47;6.32;;;3.55;;
23300;SDS011;11819;51.394;12.340;2023-07-31T11:58:13;7.10;;;3.53;;
23300;SDS011;11819;51.394;12.340;2023-07-31T12:00:41;7.25;;;3.90;;
23300;SDS011;11819;51.394;12.340;2023-07-31T12:03:06;6.97;;;3.70;;
23300;SDS011;11819;51.394;12.340;2023-07-31T12:05:33;6.90;;;3.95;;
23300;SDS011;11819;51.394;12.340;2023-07-31T12:07:58;5.47;;;3.58;;
23300;SDS011;11819;51.394;12.340;2023-07-31T12:10:28;5.38;;;3.78;;
23300;SDS011;11819;51.394;12.340;2023-07-31T12:12:59;7.40;;;4.10;;
23300;SDS011;11819;51.394;12.340;2023-07-31T12:15:38;7.82;;;4.22;;
23300;SDS011;11819;51.394;12.340;2023-07-31T12:18:11;6.82;;;4.05;;
23300;SDS011;11819;51.394;12.340;2023-07-31T12:20:45;8.63;;;4.15;;
23300;SDS011;11819;51.394;12.340;2023-07-31T12:23:13;7.22;;;4.03;;
23300;SDS011;11819;51.394;12.340;2023-07-31T12:25:43;7.93;;;4.38;;
23300;SDS011;11819;51.394;12.340;2023-07-31T12:28:09;7.22;;;4.05;;
23300;SDS011;11819;51.394;12.340;2023-07-31T12:30:39;9.52;;;3.55;;
23300;SDS011;11819;51.394;12.340;2023-07-31T12:33:06;7.78;;;4.10;;
23300;SDS011;11819;51.394;12.340;2023-07-31T12:35:37;9.32;;;4.65;;
23300;SDS011;11819;51.394;12.340;2023-07-31T12:38:05;6.55;;;3.72;;
23300;SDS011;11819;51.394;12.340;2023-07-31T12:40:31;7.07;;;4.32;;
23300;SDS011;11819;51.394;12.340;2023-07-31T12:42:57;6.90;;;4.72;;
23300;SDS011;11819;51.394;12.340;2023-07-31T12:45:26;9.30;;;3.92;;
23300;SDS011;11819;51.394;12.340;2023-07-31T12:47:52;8.65;;;4.40;;
23300;SDS011;11819;51.394;12.340;2023-07-31T12:50:18;8.48;;;4.22;;
23300;SDS011;11819;51.394;12.340;2023-07-31T12:52:44;6.70;;;3.80;;
23300;SDS011;11819;51.394;12.340;2023-07-31T12:55:10;9.90;;;4.40;;
23300;SDS011;11819;51.394;12.340;2023-07-31T12:57:36;9.82;;;4.47;;
23300;SDS011;11819;51.394;12.340;2023-07-31T13:00:02;6.88;;;3.85;;
23300;SDS011;11819;51.394;12.340;2023-07-31T13:02:29;7.78;;;4.55;;
23300;SDS011;11819;51.394;12.340;2023-07-31T13:04:54;7.78;;;4.20;;
23300;SDS011;11819;51.394;12.340;2023-07-31T13:07:21;9.13;;;3.80;;
23300;SDS011;11819;51.394;12.340;2023-07-31T13:09:48;9.70;;;3.80;;
23300;SDS011;11819;51.394;12.340;2023-07-31T13:12:13;7.40;;;4.38;;
23300;SDS011;11819;51.394;12.340;2023-07-31T13:14:39;8.13;;;4.53;;
23300;SDS011;11819;51.394;12.340;2023-07-31T13:17:04;9.18;;;4.20;;
23300;SDS011;11819;51.394;12.340;2023-07-31T13:19:31;7.22;;;3.80;;
23300;SDS011;11819;51.394;12.340;2023-07-31T13:21:57;7.72;;;3.05;;
23300;SDS011;11819;51.394;12.340;2023-07-31T13:24:22;6.90;;;3.67;;
23300;SDS011;11819;51.394;12.340;2023-07-31T13:26:48;6.45;;;3.08;;
23300;SDS011;11819;51.394;12.340;2023-07-31T13:29:13;8.20;;;3.50;;
23300;SDS011;11819;51.394;12.340;2023-07-31T13:31:39;4.75;;;2.97;;
23300;SDS011;11819;51.394;12.340;2023-07-31T13:34:05;6.50;;;3.33;;
23300;SDS011;11819;51.394;12.340;2023-07-31T13:36:30;7.03;;;3.28;;
23300;SDS011;11819;51.394;12.340;2023-07-31T13:38:56;6.00;;;2.75;;
23300;SDS011;11819;51.394;12.340;2023-07-31T13:41:22;7.05;;;3.15;;
23300;SDS011;11819;51.394;12.340;2023-07-31T13:43:47;6.75;;;3.33;;
23300;SDS011;11819;51.394;12.340;2023-07-31T13:46:13;6.60;;;3.53;;
23300;SDS011;11819;51.394;12.340;2023-07-31T13:48:38;7.18;;;3.15;;
23300;SDS011;11819;51.394;12.340;2023-07-31T13:51:04;7.25;;;4.30;;
23300;SDS011;11819;51.394;12.340;2023-07-31T13:53:30;5.85;;;3.38;;
23300;SDS011;11819;51.394;12.340;2023-07-31T13:55:56;6.97;;;3.50;;
23300;SDS011;11819;51.394;12.340;2023-07-31T13:58:23;5.97;;;3.20;;
23300;SDS011;11819;51.394;12.340;2023-07-31T14:00:49;5.55;;;3.58;;
23300;SDS011;11819;51.394;12.340;2023-07-31T14:03:14;6.75;;;3.17;;
23300;SDS011;11819;51.394;12.340;2023-07-31T14:05:40;6.20;;;3.67;;
23300;SDS011;11819;51.394;12.340;2023-07-31T14:08:06;6.30;;;3.72;;
23300;SDS011;11819;51.394;12.340;2023-07-31T14:10:32;6.35;;;3.60;;
23300;SDS011;11819;51.394;12.340;2023-07-31T14:12:57;6.75;;;3.50;;
23300;SDS011;11819;51.394;12.340;2023-07-31T14:15:23;9.57;;;3.60;;
23300;SDS011;11819;51.394;12.340;2023-07-31T14:17:49;15.63;;;3.65;;
23300;SDS011;11819;51.394;12.340;2023-07-31T14:20:15;6.20;;;3.92;;
23300;SDS011;11819;51.394;12.340;2023-07-31T14:22:40;7.85;;;3.13;;
23300;SDS011;11819;51.394;12.340;2023-07-31T14:25:06;8.70;;;3.28;;
23300;SDS011;11819;51.394;12.340;2023-07-31T14:27:35;6.07;;;3.35;;
23300;SDS011;11819;51.394;12.340;2023-07-31T14:30:02;7.68;;;3.45;;
23300;SDS011;11819;51.394;12.340;2023-07-31T14:32:29;8.23;;;3.40;;
23300;SDS011;11819;51.394;12.340;2023-07-31T14:34:54;23.48;;;4.03;;
23300;SDS011;11819;51.394;12.340;2023-07-31T14:37:20;9.75;;;3.67;;
23300;SDS011;11819;51.394;12.340;2023-07-31T14:39:46;12.15;;;3.60;;
23300;SDS011;11819;51.394;12.340;2023-07-31T14:42:11;8.50;;;3.08;;
23300;SDS011;11819;51.394;12.340;2023-07-31T14:44:37;6.78;;;3.10;;